sensor_id;sensor_type;location;lat;lon;timestamp;P1;durP1;ratioP1;P2;durP2;ratioP2
18473;SDS011;30265;52.408;13.500;2023-07-29T00:05:44;11.70;;;7.28;;
18473;SDS011;30265;52.408;13.500;2023-07-29T00:16:06;12.30;;;7.32;;
18473;SDS011;30265;52.408;13.500;2023-07-29T00:26:29;15.18;;;8.23;;
18473;SDS011;30265;52.408;13.500;2023-07-29T00:36:52;13.05;;;7.10;;
18473;SDS011;30265;52.408;13.500;2023-07-29T00:47:15;15.85;;;8.05;;
18473;SDS011;30265;52.408;13.500;2023-07-29T00:57:37;11.45;;;7.25;;
18473;SDS011;30265;52.408;13.500;2023-07-29T01:08:03;15.05;;;7.28;;
18473;SDS011;30265;52.408;13.500;2023-07-29T01:18:30;12.27;;;6.90;;
18473;SDS011;30265;52.408;13.500;2023-07-29T01:28:55;19.42;;;8.07;;
18473;SDS011;30265;52.408;13.500;2023-07-29T01:39:16;12.57;;;6.90;;
18473;SDS011;30265;52.408;13.500;2023-07-29T01:49:40;12.00;;;7.47;;
18473;SDS011;30265;52.408;13.500;2023-07-29T02:00:02;19.27;;;9.63;;
18473;SDS011;30265;52.408;13.500;2023-07-29T02:10:34;16.67;;;7.78;;
18473;SDS011;30265;52.408;13.500;2023-07-29T02:20:56;16.20;;;8.52;;
18473;SDS011;30265;52.408;13.500;2023-07-29T02:31:20;16.52;;;8.73;;
18473;SDS011;30265;52.408;13.500;2023-07-29T02:41:42;15.10;;;7.75;;
18473;SDS011;30265;52.408;13.500;2023-07-29T02:52:06;14.88;;;7.78;;
18473;SDS011;30265;52.408;13.500;2023-07-29T03:02:27;16.85;;;8.80;;
18473;SDS011;30265;52.408;13.500;2023-07-29T03:12:50;13.30;;;7.40;;
18473;SDS011;30265;52.408;13.500;2023-07-29T03:23:14;13.57;;;7.45;;
18473;SDS011;30265;52.408;13.500;2023-07-29T03:33:38;16.70;;;7.70;;
18473;SDS011;30265;52.408;13.500;2023-07-29T03:44:00;16.10;;;9.00;;
18473;SDS011;30265;52.408;13.500;2023-07-29T03:54:23;15.43;;;8.13;;
18473;SDS011;30265;52.408;13.500;2023-07-29T04:04:45;16.95;;;8.70;;
18473;SDS011;30265;52.408;13.500;2023-07-29T04:15:10;16.58;;;9.07;;
18473;SDS011;30265;52.408;13.500;2023-07-29T04:25:32;16.77;;;9.65;;
18473;SDS011;30265;52.408;13.500;2023-07-29T04:35:55;14.15;;;8.27;;
18473;SDS011;30265;52.408;13.500;2023-07-29T04:46:17;13.35;;;9.18;;
18473;SDS011;30265;52.408;13.500;2023-07-29T04:56:40;14.75;;;8.85;;
18473;SDS011;30265;52.408;13.500;2023-07-29T05:07:02;12.20;;;8.27;;
18473;SDS011;30265;52.408;13.500;2023-07-29T05:17:25;11.98;;;7.78;;
18473;SDS011;30265;52.408;13.500;2023-07-29T05:27:46;12.90;;;7.30;;
18473;SDS011;30265;52.408;13.500;2023-07-29T05:38:10;7.50;;;5.60;;
18473;SDS011;30265;52.408;13.500;2023-07-29T05:48:31;8.63;;;5.80;;
18473;SDS011;30265;52.408;13.500;2023-07-29T05:58:57;7.05;;;4.93;;
18473;SDS011;30265;52.408;13.500;2023-07-29T06:09:18;6.63;;;4.50;;
18473;SDS011;30265;52.408;13.500;2023-07-29T06:19:41;5.63;;;3.80;;
18473;SDS011;30265;52.408;13.500;2023-07-29T06:40:27;4.90;;;3.60;;
18473;SDS011;30265;52.408;13.500;2023-07-29T06:50:48;4.23;;;3.00;;
18473;SDS011;30265;52.408;13.500;2023-07-29T07:01:12;4.97;;;3.30;;
18473;SDS011;30265;52.408;13.500;2023-07-29T07:21:56;5.07;;;3.50;;
18473;SDS011;30265;52.408;13.500;2023-07-29T07:32:18;5.33;;;3.40;;
18473;SDS011;30265;52.408;13.500;2023-07-29T07:42:41;4.53;;;3.45;;
18473;SDS011;30265;52.408;13.500;2023-07-29T07:53:02;7.50;;;3.83;;
18473;SDS011;30265;52.408;13.500;2023-07-29T08:03:25;4.97;;;3.47;;
18473;SDS011;30265;52.408;13.500;2023-07-29T08:13:47;4.70;;;3.67;;
18473;SDS011;30265;52.408;13.500;2023-07-29T08:24:10;5.03;;;3.20;;
18473;SDS011;30265;52.408;13.500;2023-07-29T08:34:31;3.80;;;3.05;;
18473;SDS011;30265;52.408;13.500;2023-07-29T08:44:55;4.32;;;3.40;;
18473;SDS011;30265;52.408;13.500;2023-07-29T08:55:18;4.00;;;2.97;;
18473;SDS011;30265;52.408;13.500;2023-07-29T09:05:41;5.47;;;3.00;;
18473;SDS011;30265;52.408;13.500;2023-07-29T09:16:03;4.75;;;3.20;;
18473;SDS011;30265;52.408;13.500;2023-07-29T09:26:26;4.30;;;2.80;;
18473;SDS011;30265;52.408;13.500;2023-07-29T09:36:49;4.50;;;3.00;;
18473;SDS011;30265;52.408;13.500;2023-07-29T09:57:42;3.22;;;2.60;;
18473;SDS011;30265;52.408;13.500;2023-07-29T10:08:05;8.30;;;2.70;;
18473;SDS011;30265;52.408;13.500;2023-07-29T10:18:28;3.17;;;2.38;;
18473;SDS011;30265;52.408;13.500;2023-07-29T10:39:14;3.03;;;2.20;;
18473;SDS011;30265;52.408;13.500;2023-07-29T10:49:37;3.47;;;2.40;;
18473;SDS011;30265;52.408;13.500;2023-07-29T11:00:02;2.65;;;2.00;;
18473;SDS011;30265;52.408;13.500;2023-07-29T11:10:27;2.95;;;2.22;;
18473;SDS011;30265;52.408;13.500;2023-07-29T11:20:48;3.20;;;2.13;;
18473;SDS011;30265;52.408;13.500;2023-07-29T11:31:11;6.50;;;3.28;;
18473;SDS011;30265;52.408;13.500;2023-07-29T11:41:34;7.30;;;3.33;;
18473;SDS011;30265;52.408;13.500;2023-07-29T11:51:57;5.70;;;3.65;;
18473;SDS011;30265;52.408;13.500;2023-07-29T12:02:19;6.05;;;3.25;;
18473;SDS011;30265;52.408;13.500;2023-07-29T12:12:47;5.53;;;3.10;;
18473;SDS011;30265;52.408;13.500;2023-07-29T12:23:09;4.95;;;3.72;;
18473;SDS011;30265;52.408;13.500;2023-07-29T12:33:33;6.32;;;3.58;;
18473;SDS011;30265;52.408;13.500;2023-07-29T12:43:55;6.68;;;3.50;;
18473;SDS011;30265;52.408;13.500;2023-07-29T12:54:18;6.03;;;3.45;;
18473;SDS011;30265;52.408;13.500;2023-07-29T13:04:40;3.63;;;2.30;;
18473;SDS011;30265;52.408;13.500;2023-07-29T13:15:03;1.88;;;1.50;;
18473;SDS011;30265;52.408;13.500;2023-07-29T13:25:26;2.28;;;1.60;;
18473;SDS011;30265;52.408;13.500;2023-07-29T13:35:50;3.03;;;1.50;;
18473;SDS011;30265;52.408;13.500;2023-07-29T13:46:11;2.87;;;1.60;;
18473;SDS011;30265;52.408;13.500;2023-07-29T13:56:35;4.03;;;1.60;;
18473;SDS011;30265;52.408;13.500;2023-07-29T14:06:57;3.80;;;2.00;;
18473;SDS011;30265;52.408;13.500;2023-07-29T14:17:20;3.80;;;2.17;;
18473;SDS011;30265;52.408;13.500;2023-07-29T14:27:42;4.75;;;2.00;;
18473;SDS011;30265;52.408;13.500;2023-07-29T14:38:04;3.07;;;2.10;;
18473;SDS011;30265;52.408;13.500;2023-07-29T14:48:26;3.03;;;2.00;;
18473;SDS011;30265;52.408;13.500;2023-07-29T14:58:49;3.70;;;2.40;;
18473;SDS011;30265;52.408;13.500;2023-07-29T15:09:11;2.92;;;2.33;;
18473;SDS011;30265;52.408;13.500;2023-07-29T15:19:34;2.95;;;1.95;;
18473;SDS011;30265;52.408;13.500;2023-07-29T15:40:19;6.25;;;2.22;;
18473;SDS011;30265;52.408;13.500;2023-07-29T15:50:41;4.00;;;2.20;;
18473;SDS011;30265;52.408;13.500;2023-07-29T16:01:04;3.20;;;1.90;;
18473;SDS011;30265;52.408;13.500;2023-07-29T16:11:26;6.57;;;2.28;;
18473;SDS011;30265;52.408;13.500;2023-07-29T16:21:50;5.07;;;2.88;;
18473;SDS011;30265;52.408;13.500;2023-07-29T16:32:11;3.65;;;2.03;;
18473;SDS011;30265;52.408;13.500;2023-07-29T16:42:35;5.50;;;2.40;;
18473;SDS011;30265;52.408;13.500;2023-07-29T16:52:56;4.82;;;2.25;;
18473;SDS011;30265;52.408;13.500;2023-07-29T17:03:20;5.18;;;2.28;;
18473;SDS011;30265;52.408;13.500;2023-07-29T17:13:42;4.33;;;2.27;;
18473;SDS011;30265;52.408;13.500;2023-07-29T17:24:05;3.47;;;2.30;;
18473;SDS011;30265;52.408;13.500;2023-07-29T17:34:27;3.60;;;1.97;;
18473;SDS011;30265;52.408;13.500;2023-07-29T17:44:50;4.72;;;1.95;;
18473;SDS011;30265;52.408;13.500;2023-07-29T17:55:12;6.20;;;2.50;;
18473;SDS011;30265;52.408;13.500;2023-07-29T18:05:36;24.13;;;15.80;;
18473;SDS011;30265;52.408;13.500;2023-07-29T18:26:20;7.78;;;4.82;;
18473;SDS011;30265;52.408;13.500;2023-07-29T18:36:42;5.53;;;2.97;;
18473;SDS011;30265;52.408;13.500;2023-07-29T18:47:07;5.43;;;2.87;;
18473;SDS011;30265;52.408;13.500;2023-07-29T18:57:29;5.87;;;3.03;;
18473;SDS011;30265;52.408;13.500;2023-07-29T19:07:52;7.25;;;3.78;;
18473;SDS011;30265;52.408;13.500;2023-07-29T19:18:14;5.97;;;2.80;;
18473;SDS011;30265;52.408;13.500;2023-07-29T19:28:37;5.68;;;3.35;;
18473;SDS011;30265;52.408;13.500;2023-07-29T19:38:59;6.60;;;3.10;;
18473;SDS011;30265;52.408;13.500;2023-07-29T19:49:21;6.70;;;3.22;;
18473;SDS011;30265;52.408;13.500;2023-07-29T19:59:44;7.45;;;3.50;;
18473;SDS011;30265;52.408;13.500;2023-07-29T20:10:10;8.13;;;4.07;;
18473;SDS011;30265;52.408;13.500;2023-07-29T20:20:31;6.47;;;4.22;;
18473;SDS011;30265;52.408;13.500;2023-07-29T20:30:55;10.52;;;5.13;;
18473;SDS011;30265;52.408;13.500;2023-07-29T20:41:17;6.53;;;4.57;;
18473;SDS011;30265;52.408;13.500;2023-07-29T20:51:40;9.02;;;4.72;;
18473;SDS011;30265;52.408;13.500;2023-07-29T21:02:02;8.25;;;5.45;;
18473;SDS011;30265;52.408;13.500;2023-07-29T21:12:26;9.68;;;5.25;;
18473;SDS011;30265;52.408;13.500;2023-07-29T21:22:47;6.78;;;4.63;;
18473;SDS011;30265;52.408;13.500;2023-07-29T21:33:10;7.43;;;4.95;;
18473;SDS011;30265;52.408;13.500;2023-07-29T21:43:32;9.82;;;5.22;;
18473;SDS011;30265;52.408;13.500;2023-07-29T21:53:55;10.27;;;5.63;;
18473;SDS011;30265;52.408;13.500;2023-07-29T22:04:17;11.55;;;6.03;;
18473;SDS011;30265;52.408;13.500;2023-07-29T22:14:40;12.13;;;6.53;;
18473;SDS011;30265;52.408;13.500;2023-07-29T22:25:04;12.38;;;6.78;;
18473;SDS011;30265;52.408;13.500;2023-07-29T22:35:28;14.30;;;6.85;;
18473;SDS011;30265;52.408;13.500;2023-07-29T22:45:50;12.80;;;6.80;;
18473;SDS011;30265;52.408;13.500;2023-07-29T22:56:14;15.07;;;7.20;;
18473;SDS011;30265;52.408;13.500;2023-07-29T23:06:36;12.68;;;6.60;;
18473;SDS011;30265;52.408;13.500;2023-07-29T23:16:59;11.88;;;6.35;;
18473;SDS011;30265;52.408;13.500;2023-07-29T23:27:21;11.70;;;6.43;;
18473;SDS011;30265;52.408;13.500;2023-07-29T23:37:44;10.07;;;5.90;;
18473;SDS011;30265;52.408;13.500;2023-07-29T23:48:09;11.10;;;6.03;;
18473;SDS011;30265;52.408;13.500;2023-07-29T23:58:33;9.45;;;5.10;;
